createdAt,value
2023-08-14T00:02:35.630Z,100
2023-08-14T00:08:13.230Z,100
2023-08-14T00:13:44.902Z,100
2023-08-14T00:19:21.675Z,100
2023-08-14T00:24:51.285Z,100
2023-08-14T00:30:37.977Z,100
2023-08-14T00:36:00.717Z,100
2023-08-14T00:41:49.809Z,100
2023-08-14T00:47:28.820Z,100
2023-08-14T00:52:44.375Z,100
2023-08-14T01:04:00.405Z,100
2023-08-14T01:09:41.741Z,100
2023-08-14T01:15:07.394Z,100
2023-08-14T01:20:39.609Z,100
2023-08-14T01:26:19.409Z,100
2023-08-14T01:31:58.458Z,100
2023-08-14T01:37:23.361Z,100
2023-08-14T01:42:48.743Z,100
2023-08-14T01:48:34.700Z,100
2023-08-14T01:59:41.250Z,100
2023-08-14T02:05:00.106Z,100
2023-08-14T02:10:56.043Z,100
2023-08-14T02:16:08.009Z,100
2023-08-14T02:21:44.835Z,100
2023-08-14T02:27:23.727Z,100
2023-08-14T02:33:08.341Z,100
2023-08-14T02:38:32.515Z,100
2023-08-14T02:44:26.813Z,100
2023-08-14T02:49:44.910Z,100
2023-08-14T02:55:31.960Z,100
2023-08-14T03:00:54.464Z,100
2023-08-14T03:06:20.361Z,100
2023-08-14T03:12:07.978Z,100
2023-08-14T03:17:41.795Z,100
2023-08-14T03:23:07.621Z,100
2023-08-14T03:34:22.497Z,100
2023-08-14T03:40:04.887Z,100
2023-08-14T03:45:29.900Z,100
2023-08-14T03:51:13.869Z,100
2023-08-14T03:56:38.216Z,100
2023-08-14T04:02:21.817Z,100
2023-08-14T04:07:49.615Z,100
2023-08-14T04:13:20.458Z,100
2023-08-14T04:24:37.830Z,100
2023-08-14T04:29:47.691Z,100
2023-08-14T04:35:39.229Z,100
2023-08-14T04:41:03.586Z,100
2023-08-14T04:46:33.895Z,100
2023-08-14T04:52:29.145Z,100
2023-08-14T04:57:58.777Z,100
2023-08-14T05:03:45.681Z,100
2023-08-14T05:14:24.781Z,100
2023-08-14T05:20:06.109Z,100
2023-08-14T05:25:47.649Z,100
2023-08-14T05:31:28.873Z,100
2023-08-14T05:36:55.693Z,100
2023-08-14T05:42:14.930Z,100
2023-08-14T05:47:48.622Z,100
2023-08-14T05:53:22.144Z,100
2023-08-14T06:04:43.033Z,100
2023-08-14T06:10:06.839Z,100
2023-08-14T06:16:02.202Z,100
2023-08-14T06:21:32.706Z,100
2023-08-14T06:26:56.577Z,100
2023-08-14T06:32:46.702Z,100
2023-08-14T06:38:02.304Z,100
2023-08-14T06:43:39.150Z,100
2023-08-14T06:49:17.231Z,100
2023-08-14T06:55:10.017Z,100
2023-08-14T07:00:38.817Z,100
2023-08-14T07:06:16.932Z,100
2023-08-14T07:12:01.615Z,100
2023-08-14T07:17:34.576Z,100
2023-08-14T07:22:50.984Z,100
2023-08-14T07:39:48.571Z,100
2023-08-14T07:45:38.520Z,100
2023-08-14T07:51:12.835Z,100
2023-08-14T07:56:43.670Z,100
2023-08-14T08:02:14.496Z,100
2023-08-14T08:07:48.638Z,100
2023-08-14T08:24:33.060Z,100
2023-08-14T08:30:34.440Z,100
2023-08-14T08:35:59.442Z,100
2023-08-14T08:41:43.573Z,100
2023-08-14T08:47:18.365Z,100
2023-08-14T08:52:59.356Z,100
2023-08-14T08:58:29.154Z,100
2023-08-14T09:04:06.761Z,100
2023-08-14T09:09:40.720Z,100
2023-08-14T09:15:12.139Z,100
2023-08-14T09:21:04.718Z,100
2023-08-14T09:26:44.381Z,100
2023-08-14T09:32:05.549Z,100
2023-08-14T09:37:58.191Z,100
2023-08-14T09:43:28.281Z,100
2023-08-14T09:49:07.691Z,100
2023-08-14T09:54:55.553Z,100
2023-08-14T10:00:16.484Z,100
2023-08-14T10:06:05.627Z,100
2023-08-14T10:11:20.320Z,100
2023-08-14T10:17:01.359Z,100
2023-08-14T10:22:48.723Z,100
2023-08-14T10:28:14.475Z,100
2023-08-14T10:39:46.398Z,100
2023-08-14T10:45:15.568Z,100
2023-08-14T10:50:48.045Z,100
2023-08-14T10:56:33.107Z,100
2023-08-14T11:02:02.397Z,100
2023-08-14T11:07:54.814Z,100
2023-08-14T11:13:30.216Z,100
2023-08-14T11:24:37.344Z,100
2023-08-14T11:30:18.684Z,100
2023-08-14T11:36:03.650Z,100
2023-08-14T11:41:39.681Z,100
2023-08-14T11:47:07.736Z,100
2023-08-14T11:52:53.357Z,100
2023-08-14T12:04:02.163Z,100
2023-08-14T12:09:32.487Z,100
2023-08-14T12:15:17.093Z,100
2023-08-14T12:20:51.389Z,100
2023-08-14T12:26:26.683Z,100
2023-08-14T12:32:06.883Z,100
2023-08-14T12:37:48.687Z,100
2023-08-14T12:43:19.666Z,100
2023-08-14T12:54:45.670Z,100
2023-08-14T13:00:22.474Z,100
2023-08-14T13:05:54.340Z,100
2023-08-14T13:11:34.218Z,100
2023-08-14T13:17:15.719Z,100
2023-08-14T13:22:53.681Z,100
2023-08-14T13:28:22.681Z,100
2023-08-14T13:33:57.242Z,100
2023-08-14T13:39:38.426Z,100
2023-08-14T13:45:18.071Z,100
2023-08-14T13:51:11.259Z,100
2023-08-14T13:56:32.681Z,100
2023-08-14T14:02:14.224Z,100
2023-08-14T14:08:03.919Z,99
2023-08-14T14:13:35.051Z,100
2023-08-14T14:19:24.805Z,95
2023-08-14T14:24:50.152Z,92
2023-08-14T14:30:34.482Z,80
2023-08-14T14:36:08.550Z,80
2023-08-14T14:42:08.636Z,80
2023-08-14T14:47:31.130Z,87
2023-08-14T15:04:32.083Z,84
2023-08-14T15:10:07.439Z,85
2023-08-14T15:16:02.748Z,85
2023-08-14T15:21:33.515Z,85
2023-08-14T15:27:03.129Z,85
2023-08-14T15:32:59.740Z,83
2023-08-14T15:44:13.187Z,87
2023-08-14T15:49:58.470Z,84
2023-08-14T15:55:09.931Z,82
2023-08-14T16:00:52.263Z,83
2023-08-14T16:06:24.333Z,84
2023-08-14T16:12:03.365Z,87
2023-08-14T16:17:47.065Z,84
2023-08-14T16:23:37.264Z,86
2023-08-14T16:34:44.693Z,88
2023-08-14T16:40:41.580Z,91
2023-08-14T16:46:02.284Z,92
2023-08-14T16:51:44.799Z,96
2023-08-14T16:57:35.341Z,92
2023-08-14T17:20:06.284Z,99
2023-08-14T17:25:33.221Z,99
2023-08-14T17:31:06.462Z,100
2023-08-14T17:36:41.783Z,100
2023-08-14T17:42:40.789Z,100
2023-08-14T17:48:10.406Z,100
2023-08-14T17:59:11.273Z,100
2023-08-14T18:05:03.656Z,100
2023-08-14T18:10:24.015Z,100
2023-08-14T18:16:15.923Z,100
2023-08-14T18:21:57.633Z,100
2023-08-14T18:27:33.481Z,100
2023-08-14T18:33:15.293Z,100
2023-08-14T18:38:26.901Z,100
2023-08-14T18:50:04.012Z,100
2023-08-14T18:55:29.643Z,100
2023-08-14T19:01:05.597Z,100
2023-08-14T19:06:38.027Z,100
2023-08-14T19:12:27.353Z,100
2023-08-14T19:17:45.525Z,100
2023-08-14T19:23:22.082Z,100
2023-08-14T19:28:58.213Z,100
2023-08-14T19:34:37.062Z,100
2023-08-14T19:40:17.042Z,100
2023-08-14T19:45:41.698Z,100
2023-08-14T19:51:31.306Z,100
2023-08-14T19:57:12.913Z,100
2023-08-14T20:02:40.250Z,100
2023-08-14T20:08:06.429Z,100
2023-08-14T20:19:37.755Z,100
2023-08-14T20:24:54.847Z,100
2023-08-14T20:30:53.731Z,100
2023-08-14T20:36:26.629Z,100
2023-08-14T20:41:49.871Z,100
2023-08-14T20:47:37.290Z,100
2023-08-14T20:53:08.133Z,100
2023-08-14T21:04:06.783Z,100
2023-08-14T21:09:46.192Z,100
2023-08-14T21:15:33.693Z,100
2023-08-14T21:20:53.369Z,100
2023-08-14T21:26:28.644Z,100
2023-08-14T21:32:02.416Z,100
2023-08-14T21:37:40.710Z,100
2023-08-14T21:43:11.476Z,100
2023-08-14T21:48:45.551Z,100
2023-08-14T21:54:33.302Z,100
2023-08-14T22:00:17.017Z,100
2023-08-14T22:05:45.512Z,100
2023-08-14T22:11:30.604Z,100
2023-08-14T22:17:07.699Z,100
2023-08-14T22:22:20.369Z,100
2023-08-14T22:28:17.465Z,100
2023-08-14T22:33:40.008Z,100
2023-08-14T22:39:32.012Z,100
2023-08-14T22:44:40.122Z,100
2023-08-14T22:50:22.370Z,100
2023-08-14T22:56:15.172Z,100
2023-08-14T23:01:51.036Z,100
2023-08-14T23:07:14.446Z,100
2023-08-14T23:12:37.703Z,100
2023-08-14T23:18:29.167Z,100
2023-08-14T23:29:19.176Z,100
2023-08-14T23:35:08.613Z,100
2023-08-14T23:40:41.577Z,100
2023-08-14T23:46:05.757Z,100
2023-08-14T23:51:58.388Z,100
2023-08-14T23:57:23.000Z,100
